Time;durP1;ratioP1;P1;durP2;ratioP2;P2;SDS_P1;SDS_P2;PMS_P1;PMS_P2;Temp;Humidity;BMP_temperature;BMP_pressure;BME280_temperature;BME280_humidity;BME280_pressure;Samples;Min_cycle;Max_cycle;Signal;HPM_P1;HPM_P2
2022/10/04 00:02:26;;;;;;;2.17;1.98;;;5.80;99.90;;;;;;6131115;23;20025;-90
2022/10/04 00:07:14;;;;;;;;;;;;;;;;;;;;;
2022/10/04 00:10:45;;;;;;;;;;;;;;;;;;;;;
2022/10/04 00:14:45;;;;;;;2.35;1.70;;;6.00;99.90;;;;;;5963176;23;20027;-90
2022/10/04 00:25:47;;;;;;;1.90;1.77;;;6.00;99.90;;;;;;5918941;23;20031;-90
2022/10/04 00:28:54;;;;;;;;;;;;;;;;;;;;;
2022/10/04 00:31:34;;;;;;;4.00;1.80;;;6.20;99.90;;;;;;5970226;23;20027;-90
2022/10/04 00:34:22;;;;;;;5.32;2.53;;;6.20;99.90;;;;;;5987142;23;20030;-90
2022/10/04 00:38:18;;;;;;;6.10;3.05;;;6.40;99.90;;;;;;5998934;23;20027;-89
2022/10/04 00:41:28;;;;;;;4.40;4.03;;;6.40;99.90;;;;;;6052033;23;20034;-90
2022/10/04 00:45:15;;;;;;;;;;;;;;;;;;;;;
2022/10/04 00:48:47;;;;;;;1.73;1.63;;;6.40;99.90;;;;;;6161947;23;20032;-89
2022/10/04 00:51:41;;;;;;;2.97;1.92;;;6.40;99.90;;;;;;6186330;23;20067;-89
2022/10/04 00:55:08;;;;;;;;;;;;;;;;;;;;;
2022/10/04 00:58:18;;;;;;;;;;;;;;;;;;;;;
2022/10/04 01:01:30;;;;;;;;;;;;;;;;;;;;;
2022/10/04 01:05:13;;;;;;;4.45;2.17;;;6.40;99.90;;;;;;6126409;23;20100;-89
2022/10/04 01:09:16;;;;;;;4.55;3.38;;;6.40;99.90;;;;;;6070650;23;20485;-91
2022/10/04 01:13:16;;;;;;;5.70;3.03;;;6.40;99.90;;;;;;6074923;23;20033;-90
2022/10/04 01:16:40;;;;;;;5.00;4.60;;;6.30;99.90;;;;;;6000965;23;20026;-89
2022/10/04 01:20:37;;;;;;;;;;;;;;;;;;;;;
2022/10/04 01:24:51;;;;;;;2.55;2.20;;;6.10;99.90;;;;;;6036398;23;20026;-89
2022/10/04 01:29:36;;;;;;;20.98;4.70;;;5.90;99.90;;;;;;6213213;22;20031;-89
2022/10/04 01:33:11;;;;;;;4.45;3.10;;;5.80;99.90;;;;;;6171251;23;20757;-90
2022/10/04 01:37:48;;;;;;;2.50;2.30;;;5.80;99.90;;;;;;6167739;23;20033;-89
2022/10/04 01:41:36;;;;;;;3.47;1.20;;;5.80;99.90;;;;;;6098971;23;20029;-90
2022/10/04 01:45:49;;;;;;;;;;;;;;;;;;;;;
2022/10/04 01:49:24;;;;;;;3.97;2.35;;;5.50;99.90;;;;;;6233332;23;20479;-90
2022/10/04 01:53:42;;;;;;;3.75;2.92;;;5.50;99.90;;;;;;6205879;23;20024;-90
2022/10/04 01:57:51;;;;;;;2.42;2.10;;;5.50;99.90;;;;;;6195597;23;20024;-90
2022/10/04 02:01:29;;;;;;;;;;;;;;;;;;;;;
2022/10/04 02:05:29;;;;;;;2.95;2.72;;;5.00;99.90;;;;;;6169783;23;20020;-90
2022/10/04 02:12:49;;;;;;;2.13;2.03;;;5.30;99.90;;;;;;6193457;23;20016;-89
2022/10/04 02:16:07;;;;;;;4.65;2.35;;;5.30;99.90;;;;;;6179062;23;20351;-90
2022/10/04 02:19:33;;;;;;;2.22;2.05;;;5.20;99.90;;;;;;6193174;23;20778;-90
2022/10/04 02:27:32;;;;;;;2.25;2.13;;;5.00;99.90;;;;;;6172215;23;20019;-90
2022/10/04 02:34:28;;;;;;;34.28;3.92;;;4.90;99.90;;;;;;6113976;23;20013;-89
2022/10/04 02:37:35;;;;;;;36.33;3.42;;;4.50;99.90;;;;;;6132380;23;20448;-89
2022/10/04 02:40:44;;;;;;;1.38;1.38;;;4.40;99.90;;;;;;6072604;23;20029;-90
2022/10/04 02:44:22;;;;;;;;;;;;;;;;;;;;;
2022/10/04 02:47:59;;;;;;;2.65;2.05;;;4.30;99.90;;;;;;6158994;23;20372;-90
2022/10/04 02:51:55;;;;;;;3.30;2.08;;;4.40;99.90;;;;;;6132452;23;20021;-89
2022/10/04 02:56:01;;;;;;;;;;;;;;;;;;;;;
2022/10/04 03:00:05;;;;;;;;;;;;;;;;;;;;;
2022/10/04 03:03:52;;;;;;;2.05;1.88;;;4.40;99.90;;;;;;6043232;23;20179;-89
2022/10/04 03:12:03;;;;;;;2.65;1.70;;;4.40;99.90;;;;;;5978652;23;20031;-90
2022/10/04 03:15:56;;;;;;;1.52;1.42;;;4.60;99.90;;;;;;5956690;23;20031;-89
2022/10/04 03:19:06;;;;;;;3.85;1.60;;;4.30;99.90;;;;;;5949086;23;20051;-89
2022/10/04 03:27:25;;;;;;;5.85;2.13;;;4.20;99.90;;;;;;5893769;24;20030;-87
2022/10/04 03:30:42;;;;;;;2.63;1.50;;;4.10;99.90;;;;;;5855961;23;20481;-86
2022/10/04 03:33:39;;;;;;;2.67;2.47;;;4.00;99.90;;;;;;5983919;23;20483;-86
2022/10/04 03:36:41;;;;;;;5.43;2.35;;;4.10;99.90;;;;;;5972544;23;20038;-86
2022/10/04 03:40:20;;;;;;;3.17;2.95;;;4.30;99.90;;;;;;5967522;23;20024;-86
2022/10/04 03:42:59;;;;;;;3.28;2.58;;;4.40;99.90;;;;;;6050327;23;20040;-86
2022/10/04 03:50:25;;;;;;;3.70;2.15;;;4.60;99.90;;;;;;6075587;23;20025;-86
2022/10/04 03:54:12;;;;;;;4.30;1.85;;;4.50;99.90;;;;;;5993979;23;20015;-86
2022/10/04 03:57:19;;;;;;;;;;;;;;;;;;;;;
2022/10/04 04:00:20;;;;;;;2.15;2.00;;;4.10;99.90;;;;;;5962808;24;20028;-86
2022/10/04 04:04:52;;;;;;;2.40;2.20;;;4.00;99.90;;;;;;5923828;24;20039;-91
2022/10/04 04:12:22;;;;;;;2.20;2.00;;;4.00;99.90;;;;;;5951457;24;20456;-91
2022/10/04 04:16:49;;;;;;;;;;;;;;;;;;;;;
2022/10/04 04:30:05;;;;;;;3.00;2.28;;;4.10;99.90;;;;;;6079929;23;20029;-91
2022/10/04 04:34:15;;;;;;;34.92;5.10;;;4.20;99.90;;;;;;6053919;23;20072;-92
2022/10/04 04:41:58;;;;;;;4.15;3.75;;;4.30;99.90;;;;;;6003170;23;20435;-91
2022/10/04 04:45:38;;;;;;;3.40;3.10;;;4.50;99.90;;;;;;6069602;23;20025;-89
2022/10/04 04:49:39;;;;;;;3.40;2.58;;;4.40;99.90;;;;;;6003626;23;20027;-90
2022/10/04 04:54:09;;;;;;;2.55;2.15;;;4.10;99.90;;;;;;6010138;23;20033;-93
2022/10/04 04:57:20;;;;;;;4.90;4.35;;;3.90;99.90;;;;;;6136873;23;20577;-85
2022/10/04 04:59:58;;;;;;;9.05;4.78;;;4.00;99.90;;;;;;6191806;23;20072;-84
2022/10/04 05:02:50;;;;;;;5.93;5.32;;;4.10;99.90;;;;;;6241732;23;20034;-89
2022/10/04 05:05:44;;;;;;;6.15;4.18;;;4.20;99.90;;;;;;6194220;23;20020;-86
2022/10/04 05:17:37;;;;;;;5.55;5.05;;;4.40;99.90;;;;;;6214710;23;20029;-88
2022/10/04 06:58:11;;;;;;;9.60;6.43;;;7.30;99.90;;;;;;6227150;22;20451;-91
2022/10/04 07:05:29;;;;;;;5.23;4.50;;;7.70;99.90;;;;;;6121053;23;20020;-90
2022/10/04 07:08:46;;;;;;;6.78;4.60;;;7.80;99.90;;;;;;6163791;23;20247;-90
2022/10/04 07:13:31;;;;;;;3.90;3.38;;;7.70;99.90;;;;;;6140730;23;20031;-93
2022/10/04 10:23:31;;;;;;;;;;;;;;;;;;;;;
2022/10/04 10:28:27;;;;;;;6.18;3.55;;;12.10;99.90;;;;;;5912793;24;20074;-86
2022/10/04 10:37:48;;;;;;;9.13;3.55;;;12.20;99.90;;;;;;5880973;24;20032;-86
2022/10/04 10:41:17;;;;;;;3.42;3.13;;;12.40;99.90;;;;;;5991185;23;20378;-87
2022/10/04 10:44:01;;;;;;;3.33;2.60;;;12.40;99.90;;;;;;6140243;23;20460;-84
2022/10/04 10:46:58;;;;;;;3.47;3.17;;;12.50;99.90;;;;;;6190358;23;20329;-84
2022/10/04 10:50:31;;;;;;;4.97;2.90;;;12.50;99.90;;;;;;6182777;23;20345;-83
2022/10/04 10:53:45;;;;;;;3.20;2.90;;;12.60;99.90;;;;;;6158574;23;20329;-88
2022/10/04 11:09:26;;;;;;;3.38;3.05;;;12.80;99.90;;;;;;6255983;23;20027;-86
2022/10/04 11:13:24;;;;;;;4.78;4.25;;;12.90;99.90;;;;;;6194413;23;20529;-84
2022/10/04 11:17:02;;;;;;;16.75;4.47;;;13.00;99.90;;;;;;6151645;23;20164;-85
2022/10/04 11:19:51;;;;;;;3.95;3.53;;;13.00;99.90;;;;;;6142973;23;20028;-84
2022/10/04 11:23:06;;;;;;;5.68;2.85;;;12.90;99.90;;;;;;6170033;23;20017;31
2022/10/04 11:26:14;;;;;;;3.75;3.45;;;13.00;99.90;;;;;;6134421;23;20021;-85
2022/10/04 13:22:30;;;;;;;2.13;1.93;;;14.60;99.90;;;;;;6292074;22;20027;-87
2022/10/04 13:26:15;;;;;;;2.90;2.70;;;14.70;99.90;;;;;;6216015;23;20024;-85
2022/10/04 14:13:35;;;;;;;3.67;2.47;;;15.30;99.90;;;;;;6222699;22;20031;-86
2022/10/04 14:16:19;;;;;;;3.20;2.90;;;15.20;99.90;;;;;;6183475;23;20025;-84
2022/10/04 14:19:25;;;;;;;3.13;2.83;;;15.10;99.90;;;;;;6137707;23;20032;-84
2022/10/04 14:22:33;;;;;;;4.97;2.92;;;15.00;99.90;;;;;;6182672;23;20360;-84
2022/10/04 14:25:26;;;;;;;3.72;2.58;;;14.80;99.90;;;;;;6214695;23;20012;-84
2022/10/04 14:28:34;;;;;;;2.42;2.22;;;14.80;99.90;;;;;;6158374;23;20028;-84
2022/10/04 14:31:30;;;;;;;3.47;2.53;;;14.70;99.90;;;;;;6214985;22;20355;-84
2022/10/04 14:34:41;;;;;;;4.28;2.83;;;14.50;99.90;;;;;;6216071;23;20031;-84
2022/10/04 14:37:54;;;;;;;2.85;2.33;;;14.30;99.90;;;;;;6134792;23;20025;-83
2022/10/04 14:41:03;;;;;;;6.47;2.85;;;14.20;99.90;;;;;;6270966;22;20028;-83
2022/10/04 14:59:46;;;;;;;4.70;2.45;;;14.00;99.90;;;;;;6237706;22;20028;-88
2022/10/04 15:03:59;;;;;;;2.97;2.78;;;14.00;99.90;;;;;;6214040;22;20027;-87
2022/10/04 15:13:39;;;;;;;3.67;2.53;;;14.20;99.90;;;;;;6216283;23;20019;-87
2022/10/04 15:22:51;;;;;;;6.68;4.30;;;14.40;99.90;;;;;;6079502;23;20338;-85
2022/10/04 15:25:57;;;;;;;4.90;2.83;;;14.30;99.90;;;;;;6064581;23;20019;-88
2022/10/04 15:29:38;;;;;;;3.95;2.30;;;14.30;99.90;;;;;;6039128;23;20027;-85
2022/10/04 15:39:38;;;;;;;6.57;3.08;;;14.10;99.90;;;;;;5982165;23;20034;-87
2022/10/04 15:43:37;;;;;;;3.28;2.35;;;14.00;99.90;;;;;;5997466;23;20034;-87
2022/10/04 15:46:45;;;;;;;2.17;2.03;;;14.10;99.90;;;;;;6011099;23;20015;-86
2022/10/04 15:50:06;;;;;;;3.58;3.15;;;13.90;99.90;;;;;;6017026;23;20572;-86
2022/10/04 15:53:13;;;;;;;3.65;2.80;;;13.80;99.90;;;;;;6026897;23;20022;-88
2022/10/04 15:56:38;;;;;;;4.00;2.45;;;13.60;99.90;;;;;;6048821;23;20022;-85
2022/10/04 16:04:42;;;;;;;2.45;2.25;;;13.40;99.90;;;;;;6007390;23;20016;-86
2022/10/04 16:08:09;;;;;;;8.25;3.60;;;13.20;99.90;;;;;;5947899;23;20024;-86
2022/10/04 16:11:51;;;;;;;2.22;2.03;;;13.20;99.90;;;;;;6022665;23;20026;-86
2022/10/04 16:15:57;;;;;;;4.10;2.33;;;13.00;99.90;;;;;;6067943;23;20041;-84
2022/10/04 16:20:22;;;;;;;2.95;2.63;;;12.90;99.90;;;;;;5990642;23;20035;-85
2022/10/04 16:43:02;;;;;;;3.90;2.57;;;11.20;99.90;;;;;;5961706;23;20364;-86
2022/10/04 16:56:56;;;;;;;3.92;1.98;;;10.60;99.90;;;;;;6012023;23;20035;-86
2022/10/04 17:10:33;;;;;;;4.18;3.00;;;10.30;99.90;;;;;;6083494;23;20022;-85
2022/10/04 17:13:31;;;;;;;3.70;3.05;;;10.10;99.90;;;;;;6072549;23;20449;-83
2022/10/04 17:16:08;;;;;;;6.78;3.58;;;10.00;99.90;;;;;;6072999;23;20025;-83
2022/10/04 17:19:19;;;;;;;3.90;3.58;;;9.90;99.90;;;;;;6077985;23;20389;-83
2022/10/04 17:22:05;;;;;;;3.83;3.05;;;9.70;99.90;;;;;;6140897;23;20017;-83
2022/10/04 17:24:44;;;;;;;4.13;3.65;;;9.70;99.90;;;;;;6137282;23;20121;-83
2022/10/04 17:27:20;;;;;;;4.35;2.65;;;9.60;99.90;;;;;;6130968;23;20021;-83
2022/10/04 17:30:02;;;;;;;4.05;3.42;;;9.50;99.90;;;;;;6150715;23;20013;-82
2022/10/04 17:32:48;;;;;;;3.47;3.17;;;9.50;99.90;;;;;;6186909;23;20017;-84
2022/10/04 17:41:14;;;;;;;2.90;2.55;;;9.30;99.90;;;;;;6167167;23;20013;-84
2022/10/04 17:44:23;;;;;;;3.53;3.22;;;9.30;99.90;;;;;;6146121;22;20032;31
2022/10/04 17:55:14;;;;;;;2.60;2.40;;;8.80;99.90;;;;;;6202686;22;20458;-84
2022/10/04 17:57:32;;;;;;;5.13;3.22;;;8.40;99.90;;;;;;6208950;22;20485;-81
2022/10/04 18:00:08;;;;;;;3.42;2.78;;;8.40;99.90;;;;;;6224087;22;20026;-81
2022/10/04 18:03:12;;;;;;;2.95;2.75;;;8.50;99.90;;;;;;6230109;22;20031;-80
2022/10/04 18:05:55;;;;;;;5.30;3.72;;;8.50;99.90;;;;;;6224096;22;20011;-81
2022/10/04 18:08:38;;;;;;;3.05;2.75;;;8.50;99.90;;;;;;6235055;22;20011;-80
2022/10/04 18:11:40;;;;;;;4.13;3.38;;;8.50;99.90;;;;;;6223136;22;20020;-80
2022/10/04 18:14:36;;;;;;;3.70;2.55;;;8.50;99.90;;;;;;6198892;22;20023;-81
2022/10/04 18:17:41;;;;;;;5.13;3.33;;;8.50;99.90;;;;;;6287079;22;20012;-81
2022/10/04 18:20:32;;;;;;;2.42;2.22;;;8.50;99.90;;;;;;6248856;22;20027;-81
2022/10/04 18:23:24;;;;;;;1.95;1.75;;;8.40;99.90;;;;;;6198684;22;20039;-81
2022/10/04 18:26:17;;;;;;;;;;;8.20;99.90;;;;;;6228101;22;20012;-81
2022/10/04 18:28:47;;;;;;;2.67;2.47;;;8.10;99.90;;;;;;6272618;22;20660;-81
2022/10/04 18:31:35;;;;;;;7.53;2.92;;;8.00;99.90;;;;;;6198831;22;20020;-81
2022/10/04 18:34:27;;;;;;;6.13;3.40;;;7.90;99.90;;;;;;6231956;22;20023;-80
2022/10/04 18:37:20;;;;;;;3.63;3.15;;;8.00;99.90;;;;;;6199272;22;20020;-80
2022/10/04 18:39:49;;;;;;;7.78;4.57;;;8.00;99.90;;;;;;6248939;22;20023;-82
2022/10/04 18:42:37;;;;;;;3.78;3.47;;;8.00;99.90;;;;;;6242656;22;20023;-83
2022/10/04 18:45:40;;;;;;;5.07;3.15;;;8.00;99.90;;;;;;6255274;22;20030;-83
2022/10/04 18:48:56;;;;;;;5.68;3.35;;;8.00;99.90;;;;;;6192594;22;20364;-83
2022/10/04 18:52:46;;;;;;;7.60;4.53;;;8.00;99.90;;;;;;6091876;23;20030;-83
2022/10/04 18:55:54;;;;;;;3.30;2.95;;;8.00;99.90;;;;;;6225132;22;20030;-84
2022/10/04 21:44:16;;;;;;;6.53;5.10;;;6.80;99.90;;;;;;6085383;23;20083;-88
2022/10/04 21:47:29;;;;;;;6.72;5.65;;;6.70;99.90;;;;;;6125697;23;20044;-87
2022/10/04 21:51:02;;;;;;;5.60;5.07;;;7.00;99.90;;;;;;6122057;23;20590;-87
2022/10/04 21:54:12;;;;;;;4.68;4.28;;;7.00;99.90;;;;;;6109928;23;20025;-88
2022/10/04 21:57:44;;;;;;;6.10;4.30;;;6.80;99.90;;;;;;6116069;23;20028;-88
2022/10/04 22:01:16;;;;;;;6.70;5.68;;;6.50;99.90;;;;;;6113820;23;20028;-87
2022/10/04 22:08:53;;;;;;;8.32;4.90;;;6.50;99.90;;;;;;6135394;23;20466;-87
2022/10/04 22:12:44;;;;;;;5.80;5.07;;;6.60;99.90;;;;;;6126582;23;20500;-87
2022/10/04 22:16:06;;;;;;;9.35;5.68;;;6.90;99.90;;;;;;6084941;23;20094;-88
2022/10/04 22:19:31;;;;;;;6.00;5.32;;;7.40;99.90;;;;;;6179138;23;20027;-88
2022/10/04 22:22:25;;;;;;;9.57;6.57;;;7.50;99.90;;;;;;6178482;22;20020;-87
2022/10/04 22:25:30;;;;;;;;;;;7.60;99.90;;;;;;6208314;22;20016;-88
2022/10/04 22:28:56;;;;;;;6.50;4.47;;;7.60;99.90;;;;;;6199271;22;21056;-88
2022/10/04 22:32:19;;;;;;;7.97;6.38;;;7.60;99.90;;;;;;6194399;22;20021;-88
2022/10/04 22:36:00;;;;;;;7.15;4.68;;;7.60;99.90;;;;;;6171785;23;20024;-88
2022/10/04 22:39:18;;;;;;;7.53;5.80;;;7.70;99.90;;;;;;6151769;23;20028;-88
2022/10/04 22:43:24;;;;;;;;;;;;;;;;;;;;;
2022/10/04 22:46:37;;;;;;;6.57;5.22;;;8.10;99.90;;;;;;6219870;22;20020;-88
2022/10/04 22:50:03;;;;;;;11.15;6.28;;;8.10;99.90;;;;;;6216712;22;20024;-89
2022/10/04 22:53:03;;;;;;;4.53;3.85;;;8.10;99.90;;;;;;6206250;22;20143;-89
2022/10/04 22:56:17;;;;;;;12.10;5.90;;;8.00;99.90;;;;;;6151234;23;20025;-87
2022/10/04 22:59:41;;;;;;;11.75;4.78;;;7.60;99.90;;;;;;6139054;23;20401;-88
2022/10/04 23:03:56;;;;;;;5.53;4.22;;;7.70;99.90;;;;;;6126298;23;20032;-88
2022/10/04 23:07:11;;;;;;;5.13;4.55;;;7.80;99.90;;;;;;6143222;23;20028;-87
2022/10/04 23:10:14;;;;;;;3.85;3.55;;;7.70;99.90;;;;;;6146808;23;20035;-88
2022/10/04 23:13:04;;;;;;;50.95;10.20;;;7.40;99.90;;;;;;6139541;23;20023;-89
2022/10/04 23:16:31;;;;;;;20.95;5.07;;;7.10;99.90;;;;;;5996047;23;20038;-88
2022/10/04 23:26:06;;;;;;;;;;;;;;;;;;;;;
2022/10/04 23:30:11;;;;;;;4.63;3.47;;;7.20;99.90;;;;;;5939506;23;20083;-89
2022/10/04 23:34:05;;;;;;;6.20;4.40;;;7.30;99.90;;;;;;6050569;23;20023;-88
2022/10/04 23:38:32;;;;;;;4.35;4.03;;;7.30;99.90;;;;;;6103238;23;20350;-87
2022/10/04 23:57:31;;;;;;;;;;;;;;;;;;;;;
